createdAt,value
2022-12-31T00:03:01.497Z,100739.53
2022-12-31T00:09:06.852Z,100746.13
2022-12-31T00:15:09.283Z,100728.16
2022-12-31T00:21:12.745Z,100686.22
2022-12-31T00:27:15.284Z,100716.75
2022-12-31T00:33:18.931Z,100751.63
2022-12-31T00:39:21.150Z,100757.25
2022-12-31T00:45:24.609Z,100692.31
2022-12-31T00:51:31.082Z,100542.25
2022-12-31T00:57:33.519Z,100721.84
2022-12-31T01:03:36.029Z,100741.88
2022-12-31T01:09:38.459Z,100747.78
2022-12-31T01:15:40.995Z,100689.09
2022-12-31T01:21:44.398Z,100726.19
2022-12-31T01:27:46.846Z,100697.50
2022-12-31T01:33:49.305Z,100754.78
2022-12-31T01:39:51.819Z,100739.91
2022-12-31T01:45:55.370Z,100762.50
2022-12-31T01:52:03.783Z,100760.09
2022-12-31T01:58:12.275Z,100763.19
2022-12-31T02:04:16.096Z,100724.94
2022-12-31T02:10:18.239Z,100715.84
2022-12-31T02:16:32.758Z,100750.72
2022-12-31T02:23:03.420Z,100745.47
2022-12-31T02:29:29.844Z,100754.63
2022-12-31T02:35:49.357Z,100705.66
2022-12-31T02:41:52.086Z,100729.88
2022-12-31T02:48:06.447Z,100642.91
2022-12-31T02:54:38.011Z,100749.81
2022-12-31T03:01:05.724Z,100709.31
2022-12-31T03:07:23.129Z,100753.25
2022-12-31T03:13:25.559Z,100751.13
2022-12-31T03:19:46.088Z,100756.22
2022-12-31T03:25:48.569Z,100732.81
2022-12-31T03:31:51.074Z,100768.94
2022-12-31T03:37:54.472Z,100772.91
2022-12-31T03:43:56.991Z,100779.59
2022-12-31T03:49:59.443Z,100766.13
2022-12-31T03:56:01.873Z,100774.13
2022-12-31T04:02:04.488Z,100775.16
2022-12-31T04:08:07.448Z,100779.50
2022-12-31T04:14:10.307Z,100778.19
2022-12-31T04:20:12.761Z,100775.31
2022-12-31T04:26:14.737Z,100782.19
2022-12-31T04:32:16.703Z,100774.66
2022-12-31T04:38:18.563Z,100758.38
2022-12-31T04:44:20.799Z,100742.56
2022-12-31T04:50:22.566Z,100702.41
2022-12-31T04:56:25.576Z,100748.88
2022-12-31T05:02:28.129Z,100798.84
2022-12-31T05:08:31.495Z,100790.88
2022-12-31T05:14:33.953Z,100810.59
2022-12-31T05:20:36.393Z,100791.09
2022-12-31T05:26:38.178Z,100739.63
2022-12-31T05:32:40.347Z,100827.75
2022-12-31T05:38:42.790Z,100831.44
2022-12-31T05:44:45.239Z,100841.72
2022-12-31T05:50:47.730Z,100728.34
2022-12-31T05:56:49.788Z,100864.31
2022-12-31T06:02:51.736Z,100834.88
2022-12-31T06:08:53.601Z,100852.63
2022-12-31T06:14:57.648Z,100855.69
2022-12-31T06:21:00.053Z,100783.94
2022-12-31T06:27:02.507Z,100886.34
2022-12-31T06:33:07.283Z,100854.16
2022-12-31T06:39:09.469Z,100857.59
2022-12-31T06:45:11.955Z,100886.97
2022-12-31T06:51:20.414Z,100900.09
2022-12-31T06:57:23.912Z,100768.69
2022-12-31T07:03:57.529Z,100870.72
2022-12-31T07:10:41.135Z,100845.81
2022-12-31T07:17:09.695Z,100903.66
2022-12-31T07:23:12.173Z,100887.81
2022-12-31T07:29:28.666Z,100917.25
2022-12-31T07:35:55.241Z,100912.19
2022-12-31T07:42:53.952Z,100761.16
2022-12-31T07:48:56.483Z,100905.34
2022-12-31T07:54:58.863Z,100745.28
2022-12-31T08:01:02.483Z,100881.78
2022-12-31T08:07:17.850Z,100893.38
2022-12-31T08:13:19.910Z,100884.41
2022-12-31T08:19:28.811Z,100827.78
2022-12-31T08:26:09.214Z,100879.97
2022-12-31T08:32:23.943Z,100874.09
2022-12-31T08:38:50.481Z,100888.09
2022-12-31T08:45:11.027Z,100814.31
2022-12-31T08:51:21.536Z,100868.91
2022-12-31T08:57:40.038Z,100877.41
2022-12-31T09:04:23.687Z,100852.16
2022-12-31T09:10:34.912Z,100854.41
2022-12-31T09:16:44.684Z,100862.59
2022-12-31T09:22:47.118Z,100857.41
2022-12-31T09:28:57.589Z,100854.84
2022-12-31T09:35:35.210Z,100808.69
2022-12-31T09:42:25.863Z,100707.94
2022-12-31T09:49:27.564Z,100811.25
2022-12-31T09:55:37.074Z,100761.69
2022-12-31T10:01:56.704Z,100790.97
2022-12-31T10:07:59.055Z,100791.25
2022-12-31T10:14:32.664Z,100781.53
2022-12-31T10:21:05.222Z,100763.75
2022-12-31T10:27:33.839Z,100627.38
2022-12-31T10:33:48.348Z,100765.91
2022-12-31T10:40:18.936Z,100641.16
2022-12-31T10:46:48.531Z,100766.25
2022-12-31T10:53:16.080Z,100758.03
2022-12-31T10:59:44.985Z,100753.19
2022-12-31T11:05:47.113Z,100745.03
2022-12-31T11:12:10.650Z,100745.16
2022-12-31T11:18:23.184Z,100746.03
2022-12-31T11:24:26.622Z,100744.28
2022-12-31T11:30:39.197Z,100758.56
2022-12-31T11:36:52.664Z,100698.94
2022-12-31T11:43:12.255Z,100744.16
2022-12-31T11:49:43.801Z,100751.25
2022-12-31T11:56:02.742Z,100724.59
2022-12-31T12:02:18.438Z,100727.09
2022-12-31T12:08:21.359Z,100738.28
2022-12-31T12:14:41.872Z,100735.56
2022-12-31T12:20:47.318Z,100717.88
2022-12-31T12:26:52.813Z,100682.53
2022-12-31T12:33:01.938Z,100678.94
2022-12-31T12:39:07.409Z,100696.84
2022-12-31T12:45:18.842Z,100699.34
2022-12-31T12:51:26.930Z,100639.91
2022-12-31T12:57:42.396Z,100685.06
2022-12-31T13:04:32.926Z,100714.38
2022-12-31T13:10:29.388Z,100729.69
2022-12-31T13:16:37.890Z,100733.19
2022-12-31T13:22:50.367Z,100727.69
2022-12-31T13:28:53.795Z,100683.97
2022-12-31T13:35:03.317Z,100684.69
2022-12-31T13:41:28.850Z,100710.81
2022-12-31T13:47:39.572Z,100702.03
2022-12-31T13:54:04.928Z,100707.09
2022-12-31T14:00:21.391Z,100719.81
2022-12-31T14:06:35.930Z,100716.75
2022-12-31T14:13:00.519Z,100712.78
2022-12-31T14:19:32.478Z,100706.56
2022-12-31T14:25:47.540Z,100715.44
2022-12-31T14:31:50.085Z,100701.78
2022-12-31T14:38:06.523Z,100704.81
2022-12-31T14:44:37.119Z,100700.56
2022-12-31T14:50:39.551Z,100689.44
2022-12-31T14:56:46.075Z,100684.56
2022-12-31T15:02:53.415Z,100718.59
2022-12-31T15:09:31.138Z,100742.09
2022-12-31T15:15:55.694Z,100736.22
2022-12-31T15:22:34.327Z,100750.66
2022-12-31T15:28:39.807Z,100731.91
2022-12-31T15:34:44.219Z,100692.09
2022-12-31T15:40:53.598Z,100717.41
2022-12-31T15:47:08.276Z,100718.47
2022-12-31T15:53:29.983Z,100726.00
2022-12-31T15:59:34.449Z,100730.78
2022-12-31T16:05:43.934Z,100707.75
2022-12-31T16:11:50.305Z,100721.81
2022-12-31T16:18:08.810Z,100694.16
2022-12-31T16:24:31.353Z,100717.19
2022-12-31T16:30:36.804Z,100725.88
2022-12-31T16:36:39.259Z,100680.50
2022-12-31T16:42:44.418Z,100730.50
2022-12-31T16:49:23.373Z,100722.63
2022-12-31T16:55:29.844Z,100738.81
2022-12-31T17:01:35.430Z,100748.94
2022-12-31T17:07:41.746Z,100751.25
2022-12-31T17:13:46.215Z,100768.66
2022-12-31T17:19:50.736Z,100741.72
2022-12-31T17:26:12.231Z,100640.22
2022-12-31T17:32:37.763Z,100744.84
2022-12-31T17:38:40.227Z,100754.75
2022-12-31T17:44:46.686Z,100764.97
2022-12-31T17:50:53.146Z,100768.28
2022-12-31T17:56:55.632Z,100758.44
2022-12-31T18:02:58.143Z,100724.59
2022-12-31T18:08:59.931Z,100757.59
2022-12-31T18:15:01.994Z,100751.56
2022-12-31T18:21:08.508Z,100699.91
2022-12-31T18:27:19.004Z,100755.13
2022-12-31T18:33:25.454Z,100781.38
2022-12-31T18:39:27.990Z,100784.69
2022-12-31T18:45:30.505Z,100719.34
2022-12-31T18:51:33.914Z,100758.94
2022-12-31T18:57:36.371Z,100778.09
2022-12-31T19:03:38.842Z,100710.81
2022-12-31T19:09:46.018Z,100782.75
2022-12-31T19:15:51.808Z,100789.00
2022-12-31T19:21:54.256Z,100748.47
2022-12-31T19:27:56.779Z,100701.19
2022-12-31T19:33:59.150Z,100752.91
2022-12-31T19:40:03.689Z,100690.56
2022-12-31T19:46:06.115Z,100813.84
2022-12-31T19:52:08.579Z,100802.47
2022-12-31T19:58:20.091Z,100780.72
2022-12-31T20:04:22.581Z,100797.78
2022-12-31T20:10:25.042Z,100801.44
2022-12-31T20:16:27.559Z,100797.44
2022-12-31T20:22:29.951Z,100789.09
2022-12-31T20:28:32.485Z,100785.25
2022-12-31T20:34:34.942Z,100722.16
2022-12-31T20:40:42.893Z,100818.94
2022-12-31T20:46:48.942Z,100823.56
2022-12-31T20:52:51.408Z,100801.84
2022-12-31T20:58:53.902Z,100714.13
2022-12-31T21:04:56.432Z,100819.50
2022-12-31T21:10:59.838Z,100853.81
2022-12-31T21:17:02.276Z,100859.97
2022-12-31T21:23:04.750Z,100820.69
2022-12-31T21:29:07.228Z,100814.25
2022-12-31T21:41:51.387Z,100830.97
2022-12-31T21:48:11.919Z,100833.69
2022-12-31T21:54:34.552Z,100808.81
2022-12-31T22:00:56.087Z,100749.25
2022-12-31T22:06:58.519Z,100765.19
2022-12-31T22:13:01.004Z,100823.94
2022-12-31T22:19:03.466Z,100781.09
2022-12-31T22:25:06.924Z,100828.19
2022-12-31T22:31:22.485Z,100825.72
2022-12-31T22:37:55.497Z,100801.13
2022-12-31T22:43:55.991Z,100839.78
2022-12-31T22:50:02.946Z,100813.88
2022-12-31T22:56:10.444Z,100846.50
2022-12-31T23:02:12.892Z,100813.19
2022-12-31T23:08:22.236Z,100813.53
2022-12-31T23:14:44.160Z,100785.06
2022-12-31T23:21:04.592Z,100827.59
2022-12-31T23:27:07.973Z,100834.31
2022-12-31T23:33:20.517Z,100810.38
2022-12-31T23:39:22.961Z,100842.25
2022-12-31T23:45:31.111Z,100742.88
2022-12-31T23:51:36.904Z,100832.13
2022-12-31T23:57:39.371Z,100826.97
